Time;durP1;ratioP1;P1;durP2;ratioP2;P2;SDS_P1;SDS_P2;PMS_P1;PMS_P2;Temp;Humidity;BMP_temperature;BMP_pressure;BME280_temperature;BME280_humidity;BME280_pressure;Samples;Min_cycle;Max_cycle;Signal;HPM_P1;HPM_P2
2021/12/20 00:00:12;;;;;;;0.90;0.90;;;5.30;99.90;;;;;;5107444;28;20208;-63
2021/12/20 00:02:39;;;;;;;0.90;0.77;;;5.30;99.90;;;;;;5107122;28;20315;-62
2021/12/20 00:05:08;;;;;;;2.50;1.30;;;5.40;99.90;;;;;;5107625;28;20291;-63
2021/12/20 00:07:35;;;;;;;0.80;0.80;;;5.40;99.90;;;;;;5107428;28;20264;-63
2021/12/20 00:10:04;;;;;;;1.70;1.10;;;5.40;99.90;;;;;;5106737;28;20674;-63
2021/12/20 00:12:31;;;;;;;2.07;1.10;;;5.30;99.90;;;;;;5107294;28;20267;-62
2021/12/20 00:14:57;;;;;;;1.03;0.80;;;5.40;99.90;;;;;;5106910;28;20204;-63
2021/12/20 00:17:24;;;;;;;0.93;0.87;;;5.40;99.90;;;;;;5107165;28;20295;-62
2021/12/20 00:19:51;;;;;;;1.27;0.63;;;5.40;99.90;;;;;;5107023;28;20196;-63
2021/12/20 00:22:19;;;;;;;1.33;1.13;;;5.40;99.90;;;;;;5106467;28;20204;-63
2021/12/20 00:24:46;;;;;;;1.13;0.97;;;5.30;99.90;;;;;;5106103;28;20292;-63
2021/12/20 00:27:14;;;;;;;1.57;1.47;;;5.30;99.90;;;;;;5106883;28;20220;-62
2021/12/20 00:29:41;;;;;;;2.23;1.30;;;5.30;99.90;;;;;;5106994;28;20223;-63
2021/12/20 00:32:08;;;;;;;1.30;1.10;;;5.40;99.90;;;;;;5107125;28;20231;-63
2021/12/20 00:34:36;;;;;;;4.03;1.57;;;5.40;99.90;;;;;;5107277;28;20207;-63
2021/12/20 00:37:04;;;;;;;1.80;1.20;;;5.40;99.90;;;;;;5106878;28;20272;-64
2021/12/20 00:42:17;;;;;;;0.70;0.70;;;5.30;99.90;;;;;;5107061;28;20196;-62
2021/12/20 00:44:44;;;;;;;1.60;1.40;;;5.30;99.90;;;;;;5106344;28;20223;-63
2021/12/20 00:47:11;;;;;;;3.93;1.37;;;5.30;99.90;;;;;;5106456;28;20621;-63
2021/12/20 00:49:38;;;;;;;3.83;1.67;;;5.30;99.90;;;;;;5106526;28;20231;-63
2021/12/20 00:52:05;;;;;;;2.07;1.40;;;5.20;99.90;;;;;;5106594;28;20274;-63
2021/12/20 00:54:33;;;;;;;4.03;1.60;;;5.20;99.90;;;;;;5105548;28;20239;-63
2021/12/20 00:57:00;;;;;;;4.03;0.83;;;5.20;99.90;;;;;;5106406;28;20264;-63
2021/12/20 00:59:27;;;;;;;1.80;1.00;;;5.20;99.90;;;;;;5105998;28;20296;-63
2021/12/20 01:01:54;;;;;;;1.93;0.83;;;5.30;99.90;;;;;;5106272;28;20232;-62
2021/12/20 01:04:20;;;;;;;0.67;0.67;;;5.30;99.90;;;;;;5106673;28;20270;-63
2021/12/20 01:06:47;;;;;;;1.23;0.87;;;5.30;99.90;;;;;;5106439;28;20216;-63
2021/12/20 01:09:14;;;;;;;2.80;1.10;;;5.30;99.90;;;;;;5105671;28;20375;-63
2021/12/20 01:11:43;;;;;;;0.70;0.67;;;5.30;99.90;;;;;;5106097;28;20243;-63
2021/12/20 01:14:12;;;;;;;1.60;0.80;;;5.30;99.90;;;;;;5106268;28;20207;-62
2021/12/20 01:16:38;;;;;;;1.23;0.90;;;5.30;99.90;;;;;;5106040;28;20310;-63
2021/12/20 01:19:05;;;;;;;0.80;0.73;;;5.20;99.90;;;;;;5106065;28;20200;-63
2021/12/20 01:21:32;;;;;;;0.80;0.80;;;5.20;99.90;;;;;;5106020;28;20206;-63
2021/12/20 01:23:59;;;;;;;1.07;0.77;;;5.20;99.90;;;;;;5104865;28;20208;-62
2021/12/20 01:26:25;;;;;;;1.73;1.07;;;5.20;99.90;;;;;;5105999;28;20224;-63
2021/12/20 01:28:54;;;;;;;2.77;1.10;;;5.30;99.90;;;;;;5106139;28;20200;-63
2021/12/20 01:31:20;;;;;;;3.33;1.50;;;5.30;99.90;;;;;;5105301;28;20205;-63
2021/12/20 01:33:48;;;;;;;2.87;1.10;;;5.30;99.90;;;;;;5105801;28;20288;-63
2021/12/20 01:36:14;;;;;;;1.87;0.77;;;5.30;99.90;;;;;;5105766;28;20200;-63
2021/12/20 01:38:41;;;;;;;2.30;0.50;;;5.30;99.90;;;;;;5105370;28;20196;-62
2021/12/20 01:41:10;;;;;;;1.10;1.00;;;5.30;99.90;;;;;;5105716;28;20293;-63
2021/12/20 01:43:37;;;;;;;0.60;0.60;;;5.20;99.90;;;;;;5105517;28;20872;-62
2021/12/20 01:46:06;;;;;;;0.70;0.70;;;5.20;99.90;;;;;;5105075;28;20223;-63
2021/12/20 01:48:33;;;;;;;0.83;0.83;;;5.20;99.90;;;;;;5105589;28;20210;-63
2021/12/20 01:51:19;;;;;;;0.70;0.70;;;5.20;99.90;;;;;;5105670;28;20200;-63
2021/12/20 01:53:46;;;;;;;4.57;0.90;;;5.20;99.90;;;;;;5104512;28;20200;-64
2021/12/20 01:56:13;;;;;;;1.37;0.80;;;5.10;99.90;;;;;;5105367;28;20410;-63
2021/12/20 01:58:40;;;;;;;1.43;0.90;;;5.10;99.90;;;;;;5105245;28;20200;-63
2021/12/20 02:01:21;;;;;;;1.00;0.67;;;5.10;99.90;;;;;;5104331;28;20204;-62
2021/12/20 02:03:55;;;;;;;0.50;0.50;;;5.10;99.90;;;;;;5105265;28;20200;-63
2021/12/20 02:06:29;;;;;;;0.57;0.57;;;5.10;99.90;;;;;;5105391;28;20273;-63
2021/12/20 02:08:58;;;;;;;1.50;0.67;;;5.10;99.90;;;;;;5104871;28;20180;-63
2021/12/20 02:11:24;;;;;;;1.17;1.00;;;5.00;99.90;;;;;;5105055;28;20224;-63
2021/12/20 02:13:52;;;;;;;1.50;0.73;;;5.10;99.90;;;;;;5105345;28;20204;-63
2021/12/20 02:16:20;;;;;;;0.43;0.43;;;5.10;99.90;;;;;;5104427;28;20295;-63
2021/12/20 02:18:48;;;;;;;0.97;0.70;;;5.10;99.90;;;;;;5104810;28;20208;-63
2021/12/20 02:21:16;;;;;;;1.63;1.00;;;5.20;99.90;;;;;;5104658;28;20254;-63
2021/12/20 02:23:43;;;;;;;1.30;0.87;;;5.30;99.90;;;;;;5103989;28;20211;-63
2021/12/20 02:26:12;;;;;;;0.60;0.60;;;5.20;99.90;;;;;;5104880;28;20230;-63
2021/12/20 02:28:43;;;;;;;1.10;0.90;;;5.20;99.90;;;;;;5105149;28;20200;-63
2021/12/20 02:37:02;;;;;;;0.93;0.60;;;5.10;99.90;;;;;;5104911;28;20199;-63
2021/12/20 02:39:30;;;;;;;0.40;0.40;;;5.00;99.90;;;;;;5104208;28;20207;-62
2021/12/20 02:41:57;;;;;;;0.60;0.60;;;5.00;99.90;;;;;;5104561;28;20224;-63
2021/12/20 02:44:27;;;;;;;0.67;0.60;;;5.10;99.90;;;;;;5106011;28;20228;-62
2021/12/20 02:47:05;;;;;;;3.20;0.60;;;5.10;99.90;;;;;;5109238;28;20654;-63
2021/12/20 02:49:32;;;;;;;0.67;0.33;;;5.00;99.90;;;;;;5109092;28;20225;-63
2021/12/20 02:52:04;;;;;;;1.60;0.90;;;5.00;99.90;;;;;;5108664;28;20200;-63
2021/12/20 02:54:31;;;;;;;1.73;0.67;;;5.00;99.90;;;;;;5107994;28;20264;-63
2021/12/20 02:56:57;;;;;;;1.17;0.70;;;5.10;99.90;;;;;;5109166;28;20196;-62
2021/12/20 02:59:24;;;;;;;3.10;0.70;;;5.10;99.90;;;;;;5108305;28;20280;-63
2021/12/20 03:01:54;;;;;;;2.73;0.70;;;5.10;99.90;;;;;;5108669;28;20319;-63
2021/12/20 03:04:21;;;;;;;2.20;0.87;;;5.10;99.90;;;;;;5109004;28;20200;-63
2021/12/20 03:06:52;;;;;;;0.87;0.70;;;5.10;99.90;;;;;;5108616;28;20212;-63
2021/12/20 03:09:22;;;;;;;1.13;0.93;;;5.10;99.90;;;;;;5108199;28;20350;-63
2021/12/20 03:11:54;;;;;;;2.00;0.67;;;5.00;99.90;;;;;;5108642;28;20291;-63
2021/12/20 03:14:26;;;;;;;0.73;0.70;;;5.00;99.90;;;;;;5108296;28;20227;-62
2021/12/20 03:16:53;;;;;;;1.57;0.70;;;5.00;99.90;;;;;;5108510;28;20544;-63
2021/12/20 03:19:20;;;;;;;1.33;0.60;;;5.00;99.90;;;;;;5108374;28;20214;-62
2021/12/20 03:21:47;;;;;;;0.97;0.70;;;5.10;99.90;;;;;;5108406;28;20200;-63
2021/12/20 03:24:14;;;;;;;1.70;0.50;;;5.10;99.90;;;;;;5107387;28;20204;-63
2021/12/20 03:26:42;;;;;;;0.70;0.70;;;5.20;99.90;;;;;;5108372;28;20221;-62
2021/12/20 03:29:09;;;;;;;0.50;0.50;;;5.10;99.90;;;;;;5108225;28;20205;-63
2021/12/20 03:31:36;;;;;;;3.37;0.70;;;5.20;99.90;;;;;;5107754;28;20208;-63
2021/12/20 03:34:03;;;;;;;0.77;0.77;;;5.20;99.90;;;;;;5108410;28;20204;-63
2021/12/20 03:36:31;;;;;;;0.37;0.37;;;5.20;99.90;;;;;;5108099;28;20271;-63
2021/12/20 03:38:58;;;;;;;0.60;0.60;;;5.20;99.90;;;;;;5107620;28;20210;-63
2021/12/20 03:41:25;;;;;;;0.40;0.40;;;5.30;99.90;;;;;;5108042;28;20215;-63
2021/12/20 03:43:53;;;;;;;0.80;0.50;;;5.30;99.90;;;;;;5107938;28;20295;-63
2021/12/20 03:46:21;;;;;;;0.83;0.50;;;5.30;99.90;;;;;;5107591;28;20254;-63
2021/12/20 03:48:48;;;;;;;2.77;0.80;;;5.30;99.90;;;;;;5107870;28;20217;-63
2021/12/20 03:51:15;;;;;;;2.87;0.60;;;5.30;99.90;;;;;;5107947;28;20228;-63
2021/12/20 03:53:42;;;;;;;0.50;0.50;;;5.30;99.90;;;;;;5106811;28;20355;-63
2021/12/20 03:56:09;;;;;;;0.83;0.63;;;5.30;99.90;;;;;;5107934;28;20204;-63
2021/12/20 03:58:37;;;;;;;0.60;0.60;;;5.20;99.90;;;;;;5107991;28;20196;-63
2021/12/20 04:01:10;;;;;;;2.20;0.60;;;5.20;99.90;;;;;;5107003;28;20204;-63
2021/12/20 04:03:37;;;;;;;0.60;0.60;;;5.20;99.90;;;;;;5108044;28;20208;-63
2021/12/20 04:06:06;;;;;;;0.70;0.70;;;5.20;99.90;;;;;;5107720;28;20246;-63
2021/12/20 04:08:33;;;;;;;5.87;0.67;;;5.20;99.90;;;;;;5106998;28;20215;-63
2021/12/20 04:11:00;;;;;;;3.23;0.70;;;5.10;99.90;;;;;;5107604;28;20202;-63
2021/12/20 04:13:27;;;;;;;0.83;0.73;;;5.10;99.90;;;;;;5107353;28;20196;-63
2021/12/20 04:15:55;;;;;;;4.20;0.77;;;5.10;99.90;;;;;;5107046;28;20206;-63
2021/12/20 04:18:23;;;;;;;2.13;1.10;;;5.10;99.90;;;;;;5107281;28;20192;-63
2021/12/20 04:20:50;;;;;;;2.27;0.70;;;5.10;99.90;;;;;;5107553;28;20204;-63
2021/12/20 04:23:17;;;;;;;4.30;1.30;;;5.10;99.90;;;;;;5106601;28;20212;-63
2021/12/20 04:25:44;;;;;;;4.33;1.13;;;5.10;99.90;;;;;;5106924;28;20207;-62
2021/12/20 04:28:11;;;;;;;3.00;1.13;;;5.00;99.90;;;;;;5107000;28;20216;-63
2021/12/20 04:30:38;;;;;;;4.10;0.80;;;5.00;99.90;;;;;;5106671;28;20208;-63
2021/12/20 04:33:05;;;;;;;2.60;1.00;;;5.00;99.90;;;;;;5106866;28;20271;-63
2021/12/20 04:35:34;;;;;;;1.83;1.27;;;5.00;99.90;;;;;;5107113;28;20196;-62
2021/12/20 04:38:01;;;;;;;1.20;0.90;;;5.00;99.90;;;;;;5106287;28;20200;-63
2021/12/20 04:40:28;;;;;;;0.47;0.47;;;4.90;99.90;;;;;;5107116;28;20227;-63
2021/12/20 04:42:58;;;;;;;1.63;1.10;;;4.90;99.90;;;;;;5106600;28;20204;-62
2021/12/20 04:45:27;;;;;;;4.50;1.33;;;4.80;99.90;;;;;;5106503;28;20208;-63
2021/12/20 04:47:54;;;;;;;3.77;1.20;;;4.80;99.90;;;;;;5106568;28;20216;-63
2021/12/20 04:50:21;;;;;;;4.80;1.13;;;4.70;99.90;;;;;;5106915;28;20200;-62
2021/12/20 04:52:50;;;;;;;1.33;1.23;;;4.60;99.90;;;;;;5105916;28;20211;-62
2021/12/20 04:55:17;;;;;;;0.80;0.80;;;4.70;99.90;;;;;;5106476;28;20271;-63
2021/12/20 04:57:45;;;;;;;4.30;0.90;;;4.70;99.90;;;;;;5106295;28;20211;-62
2021/12/20 05:00:14;;;;;;;2.10;0.73;;;4.70;99.90;;;;;;5106277;28;20210;-63
2021/12/20 05:02:41;;;;;;;3.63;0.87;;;4.70;99.90;;;;;;5106100;28;20232;-62
2021/12/20 05:05:09;;;;;;;5.83;0.80;;;4.70;99.90;;;;;;5106676;28;20354;-63
2021/12/20 05:07:38;;;;;;;2.80;0.73;;;4.70;99.90;;;;;;5105633;28;20236;-63
2021/12/20 05:10:11;;;;;;;2.13;1.30;;;4.60;99.90;;;;;;5106042;28;20197;-63
2021/12/20 05:12:38;;;;;;;6.40;1.20;;;4.60;99.90;;;;;;5105769;28;20291;-62
2021/12/20 05:15:06;;;;;;;0.80;0.80;;;4.60;99.90;;;;;;5105914;28;20219;-63
2021/12/20 05:17:34;;;;;;;2.97;0.90;;;4.60;99.90;;;;;;5106101;28;20268;-63
2021/12/20 05:20:01;;;;;;;2.43;0.60;;;4.60;99.90;;;;;;5106176;28;20222;-63
2021/12/20 05:22:28;;;;;;;1.67;0.97;;;4.60;99.90;;;;;;5106103;28;20239;-62
2021/12/20 05:24:55;;;;;;;0.67;0.67;;;4.60;99.90;;;;;;5105046;28;20200;-63
2021/12/20 05:27:23;;;;;;;5.77;1.40;;;4.60;99.90;;;;;;5105851;28;20222;-63
2021/12/20 05:29:50;;;;;;;1.80;0.87;;;4.50;99.90;;;;;;5105720;28;20218;-62
2021/12/20 05:32:17;;;;;;;2.37;0.70;;;4.40;99.90;;;;;;5105825;28;20208;-63
2021/12/20 05:34:44;;;;;;;3.83;0.90;;;4.40;99.90;;;;;;5105997;28;20253;-62
2021/12/20 05:37:13;;;;;;;5.77;1.20;;;4.50;99.90;;;;;;5105675;28;20196;-62
2021/12/20 05:39:40;;;;;;;1.03;0.80;;;4.50;99.90;;;;;;5105384;28;20960;-63
2021/12/20 05:42:08;;;;;;;1.03;1.03;;;4.40;99.90;;;;;;5105749;28;20257;-63
2021/12/20 05:44:36;;;;;;;1.87;0.80;;;4.40;99.90;;;;;;5103787;28;20192;-62
2021/12/20 05:47:04;;;;;;;4.93;0.97;;;4.30;99.90;;;;;;5104802;28;20242;-62
2021/12/20 05:49:31;;;;;;;0.83;0.83;;;4.30;99.90;;;;;;5105158;28;20188;-63
2021/12/20 05:51:59;;;;;;;10.53;1.07;;;4.40;99.90;;;;;;5104486;28;20290;-63
2021/12/20 05:54:25;;;;;;;0.67;0.67;;;4.40;99.90;;;;;;5103665;28;20261;-62
2021/12/20 05:56:52;;;;;;;4.30;0.87;;;4.40;99.90;;;;;;5104745;28;20193;-63
2021/12/20 05:59:19;;;;;;;1.70;0.60;;;4.40;99.90;;;;;;5104714;28;20283;-62
2021/12/20 06:01:47;;;;;;;2.13;1.13;;;4.40;99.90;;;;;;5103349;28;20230;-62
2021/12/20 06:04:14;;;;;;;1.17;0.60;;;4.30;99.90;;;;;;5104571;28;20198;-62
2021/12/20 06:06:41;;;;;;;1.80;0.93;;;4.30;99.90;;;;;;5103308;28;20203;-62
2021/12/20 06:09:08;;;;;;;0.70;0.60;;;4.20;99.90;;;;;;5102274;28;20208;-62
2021/12/20 06:11:35;;;;;;;7.90;0.83;;;4.20;99.90;;;;;;5104703;28;20196;-62
2021/12/20 06:14:02;;;;;;;1.40;0.70;;;4.20;99.90;;;;;;5102487;28;20196;-63
2021/12/20 06:16:29;;;;;;;1.90;0.50;;;4.20;99.90;;;;;;5104743;28;20291;-62
2021/12/20 06:18:57;;;;;;;4.03;0.93;;;4.10;99.90;;;;;;5104454;28;20203;-62
2021/12/20 06:21:24;;;;;;;7.23;1.53;;;4.00;99.90;;;;;;5105272;28;20214;-62
2021/12/20 06:23:51;;;;;;;1.73;0.60;;;3.90;99.90;;;;;;5103890;28;20226;-62
2021/12/20 06:26:18;;;;;;;2.57;1.33;;;3.80;99.90;;;;;;5105230;28;20637;-63
2021/12/20 06:28:45;;;;;;;6.33;0.93;;;3.80;99.90;;;;;;5104772;28;20291;-63
2021/12/20 06:31:11;;;;;;;1.53;0.97;;;3.70;99.90;;;;;;5103801;28;20286;-62
2021/12/20 06:33:38;;;;;;;2.87;1.00;;;3.70;99.90;;;;;;5104995;28;20200;-63
2021/12/20 06:36:06;;;;;;;2.40;0.73;;;3.70;99.90;;;;;;5104758;28;20708;-62
2021/12/20 06:38:35;;;;;;;7.63;1.57;;;3.80;99.90;;;;;;5104392;28;20272;-62
2021/12/20 06:41:02;;;;;;;1.30;0.80;;;3.80;99.90;;;;;;5104767;28;20203;-61
2021/12/20 06:43:31;;;;;;;12.13;1.53;;;3.80;99.90;;;;;;5104159;28;20200;-61
2021/12/20 06:45:58;;;;;;;4.53;1.87;;;3.90;99.90;;;;;;5103678;28;20228;-63
2021/12/20 06:48:25;;;;;;;2.30;0.93;;;3.90;99.90;;;;;;5101859;28;20231;-62
2021/12/20 06:50:51;;;;;;;1.37;0.97;;;4.00;99.90;;;;;;5103335;28;20252;-63
2021/12/20 06:53:20;;;;;;;3.80;0.90;;;3.90;99.90;;;;;;5101584;28;20288;-62
2021/12/20 06:55:47;;;;;;;1.77;0.40;;;3.90;99.90;;;;;;5103886;28;20199;-63
2021/12/20 06:58:14;;;;;;;4.97;0.90;;;3.90;99.90;;;;;;5104340;28;20196;-63
2021/12/20 07:00:40;;;;;;;2.27;0.90;;;3.90;99.90;;;;;;5103933;28;20267;-62
2021/12/20 07:03:07;;;;;;;4.67;1.10;;;3.90;99.90;;;;;;5104216;28;20299;-62
2021/12/20 07:05:34;;;;;;;1.27;1.10;;;3.90;99.90;;;;;;5104766;28;20200;-63
2021/12/20 07:08:02;;;;;;;1.40;1.10;;;3.90;99.90;;;;;;5103845;28;20284;-62
2021/12/20 07:10:30;;;;;;;8.13;2.47;;;3.90;99.90;;;;;;5104776;28;20201;-62
2021/12/20 07:12:57;;;;;;;3.83;1.60;;;3.90;99.90;;;;;;5104318;28;20268;-61
2021/12/20 07:15:25;;;;;;;0.70;0.50;;;3.80;99.90;;;;;;5104439;28;20243;-62
2021/12/20 07:17:52;;;;;;;5.07;1.10;;;3.80;99.90;;;;;;5104524;28;20219;-62
2021/12/20 07:20:19;;;;;;;3.87;0.83;;;3.70;99.90;;;;;;5104562;28;20201;-64
2021/12/20 07:22:46;;;;;;;3.93;1.50;;;3.70;99.90;;;;;;5103300;28;20205;-63
2021/12/20 07:25:12;;;;;;;2.73;1.10;;;3.70;99.90;;;;;;5103784;28;20232;-64
2021/12/20 07:27:41;;;;;;;1.93;0.70;;;3.60;99.90;;;;;;5103930;28;20255;-64
2021/12/20 07:30:08;;;;;;;1.73;0.90;;;3.50;99.90;;;;;;5104906;28;20292;-64
2021/12/20 07:32:35;;;;;;;9.83;2.37;;;3.40;99.90;;;;;;5103883;28;20657;-64
2021/12/20 07:35:02;;;;;;;7.80;1.70;;;3.40;99.90;;;;;;5108031;28;20664;-64
2021/12/20 07:37:29;;;;;;;4.87;1.00;;;3.30;99.90;;;;;;5107773;28;20287;-64
2021/12/20 07:39:56;;;;;;;3.40;1.70;;;3.30;99.90;;;;;;5107741;28;20201;-64
2021/12/20 07:42:25;;;;;;;3.63;1.30;;;3.20;99.90;;;;;;5108173;28;20215;-65
2021/12/20 07:44:53;;;;;;;1.03;0.93;;;3.20;99.90;;;;;;5106515;28;20196;-64
2021/12/20 07:47:20;;;;;;;1.67;1.00;;;3.30;99.90;;;;;;5107612;28;20199;-64
2021/12/20 07:49:46;;;;;;;1.77;0.97;;;3.20;99.90;;;;;;5107246;28;20197;-71
2021/12/20 07:52:13;;;;;;;4.90;1.53;;;3.20;99.90;;;;;;5107781;28;20711;-65
2021/12/20 07:54:40;;;;;;;5.90;1.27;;;3.20;99.90;;;;;;5106750;28;20228;-63
2021/12/20 07:57:07;;;;;;;2.40;1.00;;;3.20;99.90;;;;;;5107678;28;20231;-64
2021/12/20 07:59:34;;;;;;;1.43;0.80;;;3.20;99.90;;;;;;5107801;28;20279;-64
2021/12/20 08:02:03;;;;;;;2.83;0.93;;;3.40;99.90;;;;;;5107045;28;20271;-64
2021/12/20 08:04:29;;;;;;;1.30;0.70;;;3.10;99.90;;;;;;5107754;28;20279;-64
2021/12/20 08:06:56;;;;;;;1.57;0.90;;;3.10;99.90;;;;;;5107519;28;20200;-64
2021/12/20 08:09:23;;;;;;;1.50;0.73;;;3.10;99.90;;;;;;5106869;28;20689;-64
2021/12/20 08:11:50;;;;;;;4.33;1.23;;;3.10;99.90;;;;;;5107367;28;20204;-64
2021/12/20 08:14:17;;;;;;;1.07;1.00;;;3.10;99.90;;;;;;5107609;28;20625;-64
2021/12/20 08:16:44;;;;;;;3.63;1.03;;;3.10;99.90;;;;;;5106971;28;20605;-64
2021/12/20 08:19:12;;;;;;;1.33;1.10;;;3.10;99.90;;;;;;5107589;28;20635;-64
2021/12/20 08:21:39;;;;;;;1.07;0.80;;;3.10;99.90;;;;;;5107507;28;20204;-64
2021/12/20 08:24:07;;;;;;;3.40;0.90;;;3.10;99.90;;;;;;5106388;28;20214;-64
2021/12/20 08:26:36;;;;;;;3.40;1.00;;;3.10;99.90;;;;;;5107152;28;20902;-64
2021/12/20 08:29:03;;;;;;;5.67;0.80;;;3.20;99.90;;;;;;5107169;28;20248;-63
2021/12/20 08:31:30;;;;;;;6.70;1.90;;;3.10;99.90;;;;;;5106632;28;20227;-64
2021/12/20 08:33:57;;;;;;;7.83;2.37;;;3.00;99.90;;;;;;5107131;28;20201;-64
2021/12/20 08:36:25;;;;;;;8.30;2.33;;;3.00;99.90;;;;;;5106935;28;20208;-64
2021/12/20 08:38:52;;;;;;;4.77;2.03;;;2.90;99.90;;;;;;5106463;28;20256;-64
2021/12/20 08:41:19;;;;;;;3.23;1.73;;;2.90;99.90;;;;;;5106056;28;20291;-63
2021/12/20 08:43:46;;;;;;;1.67;1.50;;;2.80;99.90;;;;;;5106917;28;20279;-64
2021/12/20 08:46:15;;;;;;;2.70;1.47;;;2.80;99.90;;;;;;5106479;28;20212;-64
2021/12/20 08:48:42;;;;;;;5.13;1.67;;;2.80;99.90;;;;;;5106585;28;20248;-64
2021/12/20 08:51:10;;;;;;;8.77;1.43;;;2.70;99.90;;;;;;5106618;28;20196;-64
2021/12/20 08:53:39;;;;;;;2.73;1.50;;;2.70;99.90;;;;;;5105792;28;20211;-63
2021/12/20 08:56:11;;;;;;;4.67;1.13;;;2.70;99.90;;;;;;5105833;28;20197;-64
2021/12/20 08:58:38;;;;;;;2.00;1.37;;;2.70;99.90;;;;;;5105808;28;20188;-65
2021/12/20 09:01:05;;;;;;;2.23;1.40;;;2.70;99.90;;;;;;5105417;28;20674;-63
2021/12/20 09:03:32;;;;;;;6.67;2.10;;;2.80;99.90;;;;;;5105934;28;20224;-64
2021/12/20 09:05:59;;;;;;;3.40;1.50;;;2.80;99.90;;;;;;5105463;28;20374;-63
2021/12/20 09:08:25;;;;;;;2.50;1.20;;;2.90;99.90;;;;;;5104691;28;20251;-64
2021/12/20 09:10:54;;;;;;;3.33;1.40;;;2.90;99.90;;;;;;5105477;28;20263;-64
2021/12/20 09:13:20;;;;;;;2.60;1.23;;;3.00;99.90;;;;;;5105105;28;20292;-63
2021/12/20 09:15:47;;;;;;;3.13;1.57;;;3.00;99.90;;;;;;5105625;28;20215;-63
2021/12/20 09:18:14;;;;;;;2.10;1.33;;;3.10;99.90;;;;;;5106115;28;20290;-64
2021/12/20 09:20:42;;;;;;;4.00;1.43;;;3.10;99.90;;;;;;5106379;28;20228;-63
2021/12/20 09:23:11;;;;;;;3.03;1.13;;;3.10;99.90;;;;;;5105117;28;20739;-62
2021/12/20 09:25:40;;;;;;;0.83;0.83;;;3.10;99.90;;;;;;5105075;28;20192;-62
2021/12/20 09:28:10;;;;;;;4.40;1.43;;;3.10;99.90;;;;;;5105527;28;20246;-62
2021/12/20 09:30:39;;;;;;;2.77;1.00;;;3.10;99.90;;;;;;5102888;28;20197;-62
2021/12/20 09:33:07;;;;;;;1.90;0.97;;;3.20;99.90;;;;;;5105343;28;20209;-62
2021/12/20 09:35:34;;;;;;;5.57;1.30;;;3.20;99.90;;;;;;5105822;28;20363;-62
2021/12/20 09:38:01;;;;;;;1.63;0.90;;;3.30;99.90;;;;;;5104684;28;20674;-62
2021/12/20 09:40:34;;;;;;;5.77;1.57;;;3.20;99.90;;;;;;5105810;28;20246;-62
2021/12/20 09:43:04;;;;;;;5.43;1.43;;;3.30;99.90;;;;;;5103350;28;20206;-62
2021/12/20 09:45:34;;;;;;;3.20;1.10;;;3.30;99.90;;;;;;5105466;28;20232;-62
2021/12/20 09:48:01;;;;;;;2.67;1.67;;;3.20;99.90;;;;;;5105073;28;20726;-62
2021/12/20 09:50:30;;;;;;;3.00;1.23;;;3.30;99.90;;;;;;5105753;28;20366;-63
2021/12/20 09:52:58;;;;;;;4.07;0.97;;;3.30;99.90;;;;;;5104770;28;20230;-62
2021/12/20 09:55:25;;;;;;;5.83;1.70;;;3.20;99.90;;;;;;5105583;28;20200;-62
2021/12/20 09:57:52;;;;;;;3.90;1.60;;;3.20;99.90;;;;;;5105034;28;20276;-63
2021/12/20 10:00:23;;;;;;;8.43;3.77;;;3.20;99.90;;;;;;5104959;28;20311;-62
2021/12/20 10:02:51;;;;;;;4.27;2.30;;;3.10;99.90;;;;;;5104621;28;20264;-62
2021/12/20 10:05:19;;;;;;;2.77;1.50;;;3.20;99.90;;;;;;5105861;28;20263;-62
2021/12/20 10:07:50;;;;;;;5.20;1.23;;;3.20;99.90;;;;;;5104513;28;20271;-62
2021/12/20 10:10:40;;;;;;;5.30;1.40;;;3.30;99.90;;;;;;5105449;28;20205;-62
2021/12/20 10:13:07;;;;;;;4.00;1.37;;;3.30;99.90;;;;;;5101152;28;20265;-63
2021/12/20 10:15:38;;;;;;;6.97;1.43;;;3.30;99.90;;;;;;5104368;28;20268;-62
2021/12/20 10:18:14;;;;;;;3.30;1.40;;;2.50;99.90;;;;;;5104702;28;20236;-63
2021/12/20 10:20:42;;;;;;;6.00;1.60;;;3.40;99.90;;;;;;5105329;28;20313;-62
2021/12/20 10:23:13;;;;;;;2.93;1.10;;;3.40;99.90;;;;;;5103823;28;20212;-64
2021/12/20 10:25:41;;;;;;;3.13;1.10;;;3.40;99.90;;;;;;5104159;28;20193;-64
2021/12/20 10:28:10;;;;;;;1.17;0.73;;;3.40;99.90;;;;;;5104758;28;20647;-64
2021/12/20 10:30:40;;;;;;;4.43;0.93;;;3.40;99.90;;;;;;5104610;28;20686;-64
2021/12/20 10:33:12;;;;;;;3.77;1.13;;;3.30;99.90;;;;;;5104849;28;20353;-65
2021/12/20 10:35:42;;;;;;;7.73;1.27;;;3.30;99.90;;;;;;5105074;28;20193;-64
2021/12/20 10:38:26;;;;;;;3.43;1.30;;;3.40;99.90;;;;;;5104325;28;20234;-64
2021/12/20 10:40:55;;;;;;;1.10;1.00;;;3.30;99.90;;;;;;5105259;28;20271;-64
2021/12/20 10:43:24;;;;;;;2.60;1.10;;;3.40;99.90;;;;;;5104685;28;20296;-64
2021/12/20 10:45:56;;;;;;;1.30;0.70;;;3.40;99.90;;;;;;5104506;28;20210;-63
2021/12/20 10:48:33;;;;;;;2.87;1.27;;;3.40;99.90;;;;;;5104826;28;20231;-65
2021/12/20 10:51:00;;;;;;;2.77;1.63;;;3.40;99.90;;;;;;5104511;28;20677;-65
2021/12/20 10:53:27;;;;;;;2.97;1.10;;;3.40;99.90;;;;;;5102861;28;20564;-64
2021/12/20 10:55:56;;;;;;;3.70;1.60;;;3.50;99.90;;;;;;5104988;28;20200;-64
2021/12/20 10:58:31;;;;;;;3.87;1.40;;;3.50;99.90;;;;;;5104429;28;20272;-64
2021/12/20 11:01:08;;;;;;;3.60;1.07;;;3.50;99.90;;;;;;5104299;28;20208;-64
2021/12/20 11:03:39;;;;;;;1.07;0.90;;;3.60;99.90;;;;;;5104779;28;20242;-64
2021/12/20 11:06:37;;;;;;;5.37;0.73;;;3.60;99.90;;;;;;5106710;28;20193;-65
2021/12/20 11:09:11;;;;;;;2.07;1.00;;;3.60;99.90;;;;;;5108339;28;20208;-65
2021/12/20 11:11:45;;;;;;;1.83;0.93;;;3.50;99.90;;;;;;5108088;28;20196;-64
2021/12/20 11:14:12;;;;;;;3.20;0.70;;;3.50;99.90;;;;;;5108520;28;20268;-64
2021/12/20 11:16:41;;;;;;;3.90;0.90;;;3.60;99.90;;;;;;5107858;28;20245;-64
2021/12/20 11:19:25;;;;;;;3.13;1.10;;;3.60;99.90;;;;;;5108618;28;20647;-64
2021/12/20 11:22:00;;;;;;;2.77;1.00;;;3.70;99.90;;;;;;5108047;28;20259;-65
2021/12/20 11:24:30;;;;;;;5.67;1.17;;;3.70;99.90;;;;;;5107673;28;20204;-64
2021/12/20 11:26:59;;;;;;;7.83;1.33;;;3.80;99.90;;;;;;5108559;28;20231;-65
2021/12/20 11:29:26;;;;;;;2.57;1.07;;;3.80;99.90;;;;;;5108211;28;20220;-65
2021/12/20 11:31:54;;;;;;;5.63;1.50;;;3.80;99.90;;;;;;5107945;28;20201;-64
2021/12/20 11:34:22;;;;;;;2.67;1.30;;;3.90;99.90;;;;;;5108385;28;20282;-65
2021/12/20 11:36:53;;;;;;;2.70;1.53;;;3.90;99.90;;;;;;5108366;28;20304;-65
2021/12/20 11:39:19;;;;;;;3.30;1.13;;;3.90;99.90;;;;;;5107242;28;20191;-64
2021/12/20 11:41:47;;;;;;;17.93;7.80;;;3.80;99.90;;;;;;5107964;28;20193;-64
2021/12/20 11:44:17;;;;;;;4.10;1.27;;;3.80;99.90;;;;;;5105224;28;20193;-64
2021/12/20 11:47:02;;;;;;;18.63;7.30;;;3.80;99.90;;;;;;5107041;28;20220;-66
2021/12/20 11:49:33;;;;;;;35.80;19.10;;;3.80;99.90;;;;;;5106907;28;20679;-64
2021/12/20 11:52:07;;;;;;;8.90;2.97;;;3.70;99.90;;;;;;5107147;28;20196;-64
2021/12/20 11:54:36;;;;;;;3.13;1.70;;;3.70;99.90;;;;;;5106168;28;20181;-64
2021/12/20 11:57:03;;;;;;;1.33;1.23;;;3.80;99.90;;;;;;5106775;28;20291;-64
2021/12/20 11:59:51;;;;;;;7.03;1.00;;;3.80;99.90;;;;;;5105678;28;20188;-64
2021/12/20 12:02:24;;;;;;;6.80;1.10;;;3.70;99.90;;;;;;5088055;28;20240;-64
2021/12/20 12:05:05;;;;;;;3.90;1.10;;;3.70;99.90;;;;;;5087588;28;20221;-65
2021/12/20 12:07:35;;;;;;;1.10;0.87;;;3.70;99.90;;;;;;5087205;28;20205;-65
2021/12/20 12:10:07;;;;;;;5.00;1.87;;;3.70;99.90;;;;;;5086772;28;20213;-65
2021/12/20 12:12:39;;;;;;;7.50;4.30;;;3.70;99.90;;;;;;5087242;28;20227;-64
2021/12/20 12:15:09;;;;;;;2.40;0.80;;;3.70;99.90;;;;;;5103465;28;20200;-64
2021/12/20 12:18:10;;;;;;;5.63;3.50;;;3.70;99.90;;;;;;5105399;28;20196;-64
2021/12/20 12:20:49;;;;;;;0.40;0.40;;;3.70;99.90;;;;;;5105406;28;20192;-64
2021/12/20 12:23:18;;;;;;;1.13;0.50;;;3.70;99.90;;;;;;5104185;28;20677;-65
2021/12/20 12:25:49;;;;;;;2.03;1.90;;;3.60;99.90;;;;;;5107252;28;20207;-67
2021/12/20 12:28:18;;;;;;;2.77;0.93;;;3.60;99.90;;;;;;5106538;28;20208;-64
2021/12/20 12:31:01;;;;;;;4.00;1.00;;;3.60;99.90;;;;;;5106155;28;20288;-64
2021/12/20 12:33:33;;;;;;;2.40;0.90;;;3.60;99.90;;;;;;5104766;28;20248;-63
2021/12/20 12:36:24;;;;;;;7.17;2.63;;;3.50;99.90;;;;;;5106723;28;20634;-65
2021/12/20 12:38:54;;;;;;;12.97;8.50;;;3.60;99.90;;;;;;5090526;28;20204;-65
2021/12/20 12:41:24;;;;;;;6.03;2.77;;;3.60;99.90;;;;;;5086788;28;20197;-65
2021/12/20 12:44:01;;;;;;;1.30;0.60;;;3.60;99.90;;;;;;5096594;28;20231;-65
2021/12/20 12:47:12;;;;;;;2.40;0.90;;;3.60;99.90;;;;;;5096728;28;20318;-64
2021/12/20 12:49:48;;;;;;;2.00;0.70;;;3.50;99.90;;;;;;5085644;28;20259;-64
2021/12/20 12:52:50;;;;;;;2.43;0.60;;;3.50;99.90;;;;;;5085718;28;20207;-64
2021/12/20 12:55:30;;;;;;;0.73;0.70;;;3.40;99.90;;;;;;5063336;28;20196;-64
2021/12/20 12:57:58;;;;;;;1.23;0.60;;;3.30;99.90;;;;;;5063931;28;20296;-65
2021/12/20 13:00:32;;;;;;;2.43;0.70;;;3.30;99.90;;;;;;5063160;28;20198;-65
2021/12/20 13:03:11;;;;;;;5.60;0.70;;;3.30;99.90;;;;;;5063659;28;20229;-64
2021/12/20 13:05:38;;;;;;;4.43;1.07;;;3.40;99.90;;;;;;5063852;28;20253;-65
2021/12/20 13:08:07;;;;;;;1.63;1.23;;;3.40;99.90;;;;;;5062821;28;20300;-64
2021/12/20 13:10:38;;;;;;;2.50;0.90;;;3.40;99.90;;;;;;5063679;28;20735;-65
2021/12/20 13:13:10;;;;;;;4.70;1.20;;;3.40;99.90;;;;;;5063192;28;20209;-65
2021/12/20 13:15:42;;;;;;;1.40;0.80;;;3.40;99.90;;;;;;5063572;28;20208;-64